createdAt,value
2019-02-25T00:00:51.106Z,953.5
2019-02-25T00:01:51.005Z,953.4
2019-02-25T00:02:50.909Z,953.5
2019-02-25T00:03:50.824Z,953.5
2019-02-25T00:04:50.713Z,953.4
2019-02-25T00:05:50.655Z,953.5
2019-02-25T00:06:50.543Z,953.4
2019-02-25T00:07:50.443Z,953.4
2019-02-25T00:08:50.353Z,953.4
2019-02-25T00:09:50.255Z,953.3
2019-02-25T00:10:50.572Z,953.3
2019-02-25T00:11:50.447Z,953.4
2019-02-25T00:12:50.344Z,952.1
2019-02-25T00:13:50.254Z,953.1
2019-02-25T00:14:50.159Z,953.3
2019-02-25T00:15:50.045Z,953.2
2019-02-25T00:16:49.921Z,953.3
2019-02-25T00:17:49.819Z,953.3
2019-02-25T00:18:49.711Z,953.3
2019-02-25T00:19:49.613Z,953.2
2019-02-25T00:20:49.921Z,953.2
2019-02-25T00:21:49.785Z,953.2
2019-02-25T00:22:49.661Z,953.2
2019-02-25T00:23:49.545Z,953.2
2019-02-25T00:24:49.512Z,953.1
2019-02-25T00:25:49.425Z,953.2
2019-02-25T00:26:49.289Z,953
2019-02-25T00:27:49.167Z,953.1
2019-02-25T00:28:49.069Z,953.2
2019-02-25T00:29:48.952Z,953.2
2019-02-25T00:30:49.273Z,953.1
2019-02-25T00:31:49.154Z,953.1
2019-02-25T00:32:49.055Z,953.1
2019-02-25T00:33:48.926Z,952.9
2019-02-25T00:34:48.815Z,953.1
2019-02-25T00:35:48.717Z,953.1
2019-02-25T00:36:48.613Z,953
2019-02-25T00:37:48.551Z,952.9
2019-02-25T00:38:48.433Z,953.1
2019-02-25T00:39:48.319Z,953
2019-02-25T00:40:48.663Z,952.9
2019-02-25T00:41:48.543Z,953.1
2019-02-25T00:42:48.417Z,953.2
2019-02-25T00:43:48.307Z,953.1
2019-02-25T00:44:48.193Z,953
2019-02-25T00:45:48.132Z,953
2019-02-25T00:46:48.020Z,953
2019-02-25T00:47:47.911Z,953.1
2019-02-25T00:48:47.789Z,953
2019-02-25T00:49:47.670Z,953
2019-02-25T00:50:48.012Z,952.9
2019-02-25T00:51:47.957Z,953
2019-02-25T00:52:47.926Z,953
2019-02-25T00:53:47.836Z,952.7
2019-02-25T00:54:47.733Z,952.9
2019-02-25T00:55:47.631Z,952.9
2019-02-25T00:56:47.581Z,953.1
2019-02-25T00:57:47.484Z,952.9
2019-02-25T00:58:47.385Z,953
2019-02-25T00:59:47.291Z,953
2019-02-25T01:00:47.609Z,952.9
2019-02-25T01:01:47.515Z,952.9
2019-02-25T01:02:47.418Z,952.9
2019-02-25T01:03:47.321Z,952.9
2019-02-25T01:04:47.217Z,952.9
2019-02-25T01:05:47.105Z,952.8
2019-02-25T01:06:46.997Z,952.8
2019-02-25T01:07:46.942Z,952.9
2019-02-25T01:08:46.833Z,952.9
2019-02-25T01:09:46.735Z,953
2019-02-25T01:10:47.043Z,952.9
2019-02-25T01:11:46.932Z,952.7
2019-02-25T01:12:46.935Z,952.8
2019-02-25T01:13:46.853Z,952.9
2019-02-25T01:14:46.755Z,953
2019-02-25T01:15:46.641Z,952.9
2019-02-25T01:16:46.523Z,952.8
2019-02-25T01:17:46.409Z,952.8
2019-02-25T01:18:46.303Z,952.7
2019-02-25T01:19:46.197Z,952.7
2019-02-25T01:20:46.515Z,952.7
2019-02-25T01:21:46.405Z,952.7
2019-02-25T01:22:46.311Z,952.8
2019-02-25T01:23:46.180Z,952.5
2019-02-25T01:24:46.102Z,952.6
2019-02-25T01:25:45.998Z,952.6
2019-02-25T01:26:45.911Z,952.6
2019-02-25T01:27:45.808Z,952.5
2019-02-25T01:28:45.693Z,952.7
2019-02-25T01:29:45.592Z,952.7
2019-02-25T01:30:45.908Z,952.7
2019-02-25T01:31:45.831Z,952.5
2019-02-25T01:32:45.713Z,952.7
2019-02-25T01:33:45.603Z,952.7
2019-02-25T01:34:45.479Z,952.7
2019-02-25T01:35:45.382Z,952.7
2019-02-25T01:36:45.266Z,952.4
2019-02-25T01:37:45.168Z,952.5
2019-02-25T01:38:45.061Z,952.5
2019-02-25T01:39:44.950Z,952.6
2019-02-25T01:40:45.255Z,952.5
2019-02-25T01:41:45.150Z,952.6
2019-02-25T01:42:45.062Z,952.6
2019-02-25T01:43:44.978Z,952.5
2019-02-25T01:44:44.869Z,952.6
2019-02-25T01:45:44.746Z,952.5
2019-02-25T01:46:44.671Z,952.5
2019-02-25T01:47:44.636Z,952.5
2019-02-25T01:48:44.528Z,952.5
2019-02-25T01:49:44.416Z,952.4
2019-02-25T01:50:44.767Z,952.5
2019-02-25T01:51:44.665Z,952.5
2019-02-25T01:52:44.578Z,952.5
2019-02-25T01:53:44.473Z,952.5
2019-02-25T01:54:44.358Z,952.3
2019-02-25T01:55:44.276Z,952.5
2019-02-25T01:56:44.168Z,950.8
2019-02-25T01:57:44.095Z,952.5
2019-02-25T01:58:43.986Z,952.5
2019-02-25T01:59:43.856Z,952.5
2019-02-25T02:00:45.170Z,952.5
2019-02-25T02:01:45.062Z,952.4
2019-02-25T02:02:44.954Z,952.4
2019-02-25T02:03:44.837Z,952.5
2019-02-25T02:04:44.733Z,952.4
2019-02-25T02:05:47.540Z,952.5
2019-02-25T02:06:47.419Z,952.4
2019-02-25T02:07:47.319Z,952.1
2019-02-25T02:08:47.226Z,952.4
2019-02-25T02:09:47.123Z,952.3
2019-02-25T02:10:47.680Z,952.4
2019-02-25T02:11:47.550Z,952.2
2019-02-25T02:12:47.466Z,952.4
2019-02-25T02:13:47.388Z,952.4
2019-02-25T02:14:47.277Z,952.4
2019-02-25T02:15:47.160Z,950.5
2019-02-25T02:16:47.033Z,952.5
2019-02-25T02:17:46.915Z,952.5
2019-02-25T02:18:46.808Z,952.5
2019-02-25T02:19:46.694Z,952.4
2019-02-25T02:20:47.014Z,952.4
2019-02-25T02:21:46.897Z,952.4
2019-02-25T02:22:46.797Z,952.2
2019-02-25T02:23:46.723Z,952.4
2019-02-25T02:24:46.605Z,951.1
2019-02-25T02:25:46.497Z,952.2
2019-02-25T02:26:46.394Z,952.4
2019-02-25T02:27:46.271Z,952.5
2019-02-25T02:28:46.178Z,952.4
2019-02-25T02:29:46.074Z,952.4
2019-02-25T02:30:46.444Z,951
2019-02-25T02:31:46.440Z,952.3
2019-02-25T02:32:46.337Z,952.5
2019-02-25T02:33:46.240Z,952.3
2019-02-25T02:34:46.165Z,952.5
2019-02-25T02:35:46.072Z,952.4
2019-02-25T02:36:45.996Z,952.5
2019-02-25T02:37:46.020Z,952.5
2019-02-25T02:38:45.951Z,952.5
2019-02-25T02:39:45.854Z,952.5
2019-02-25T02:40:46.216Z,952.6
2019-02-25T02:41:46.148Z,952.5
2019-02-25T02:42:46.051Z,952.6
2019-02-25T02:43:45.960Z,952.5
2019-02-25T02:44:45.854Z,952.6
2019-02-25T02:45:45.805Z,952.6
2019-02-25T02:46:45.946Z,952.6
2019-02-25T02:47:45.827Z,952.4
2019-02-25T02:48:45.714Z,952.6
2019-02-25T02:49:45.594Z,952.6
2019-02-25T02:50:45.947Z,952.4
2019-02-25T02:51:45.841Z,952.6
2019-02-25T02:52:45.738Z,952.6
2019-02-25T02:53:45.628Z,952.6
2019-02-25T02:54:45.549Z,952.7
2019-02-25T02:55:45.439Z,952.7
2019-02-25T02:56:45.342Z,952.7
2019-02-25T02:57:45.264Z,952.6
2019-02-25T02:58:45.171Z,952.5
2019-02-25T02:59:46.110Z,952.4
2019-02-25T03:00:46.510Z,952.6
2019-02-25T03:01:46.425Z,952.6
2019-02-25T03:02:46.413Z,952.5
2019-02-25T03:03:46.329Z,952.5
2019-02-25T03:04:46.211Z,952.5
2019-02-25T03:05:46.114Z,952.6
2019-02-25T03:06:46.034Z,952.5
2019-02-25T03:07:45.953Z,952.5
2019-02-25T03:08:45.858Z,952.6
2019-02-25T03:09:45.784Z,950.7
2019-02-25T03:10:46.167Z,952.6
2019-02-25T03:11:46.163Z,952.5
2019-02-25T03:12:46.087Z,952.5
2019-02-25T03:13:45.997Z,952.4
2019-02-25T03:14:45.877Z,952.6
2019-02-25T03:15:45.779Z,952.5
2019-02-25T03:16:45.675Z,952.6
2019-02-25T03:17:45.579Z,952.6
2019-02-25T03:18:45.481Z,952.6
2019-02-25T03:19:45.388Z,952.6
2019-02-25T03:20:45.717Z,952.6
2019-02-25T03:21:45.638Z,952.6
2019-02-25T03:22:45.694Z,952.5
2019-02-25T03:23:45.587Z,952.6
2019-02-25T03:24:45.507Z,952.6
2019-02-25T03:25:48.998Z,952.6
2019-02-25T03:26:48.879Z,952.6
2019-02-25T03:27:49.818Z,952.7
2019-02-25T03:28:49.713Z,952.6
2019-02-25T03:29:49.607Z,952.6
2019-02-25T03:30:50.055Z,952.6
2019-02-25T03:31:50.029Z,952
2019-02-25T03:32:49.980Z,952.5
2019-02-25T03:33:49.944Z,952.4
2019-02-25T03:34:49.864Z,952.6
2019-02-25T03:35:49.827Z,952.4
2019-02-25T03:36:49.722Z,952.6
2019-02-25T03:37:49.615Z,952.6
2019-02-25T03:38:49.517Z,952.6
2019-02-25T03:39:49.439Z,952.6
2019-02-25T03:40:49.772Z,952.5
2019-02-25T03:41:49.667Z,952.3
2019-02-25T03:42:49.565Z,952.4
2019-02-25T03:43:49.479Z,952.4
2019-02-25T03:44:49.408Z,952.5
2019-02-25T03:45:49.321Z,952.5
2019-02-25T03:46:49.194Z,952.6
2019-02-25T03:47:49.178Z,952.6
2019-02-25T03:48:49.125Z,952.4
2019-02-25T03:49:49.114Z,952.5
2019-02-25T03:50:49.493Z,952.5
2019-02-25T03:51:49.236Z,952.4
2019-02-25T03:52:48.951Z,952.5
2019-02-25T03:53:49.699Z,952.5
2019-02-25T03:54:49.440Z,952.4
2019-02-25T03:55:49.172Z,952.5
2019-02-25T03:56:48.933Z,952.5
2019-02-25T03:57:48.673Z,952.5
2019-02-25T03:58:48.396Z,952.6
2019-02-25T03:59:48.135Z,952.6
2019-02-25T04:00:48.558Z,952.4
2019-02-25T04:01:48.460Z,952.4
2019-02-25T04:02:48.349Z,952.5
2019-02-25T04:03:48.256Z,952.5
2019-02-25T04:04:48.160Z,952.5
2019-02-25T04:05:48.122Z,952.6
2019-02-25T04:06:48.050Z,952.5
2019-02-25T04:07:47.951Z,952.6
2019-02-25T04:08:47.841Z,952.7
2019-02-25T04:09:47.739Z,952.6
2019-02-25T04:10:48.065Z,952.6
2019-02-25T04:11:47.797Z,952.7
2019-02-25T04:12:47.555Z,952.7
2019-02-25T04:13:47.286Z,952.6
2019-02-25T04:14:47.017Z,952.4
2019-02-25T04:15:46.759Z,952.5
2019-02-25T04:16:46.493Z,952.5
2019-02-25T04:17:46.254Z,952.5
2019-02-25T04:18:46.019Z,952.3
2019-02-25T04:19:45.737Z,952.5
2019-02-25T04:20:45.959Z,952.6
2019-02-25T04:21:45.702Z,952.5
2019-02-25T04:22:45.461Z,952.5
2019-02-25T04:23:45.201Z,952.6
2019-02-25T04:24:44.923Z,952.5
2019-02-25T04:25:44.660Z,952.6
2019-02-25T04:26:44.402Z,952.6
2019-02-25T04:27:44.133Z,952.4
2019-02-25T04:28:43.859Z,952.6
2019-02-25T04:29:43.591Z,952.5
2019-02-25T04:30:43.914Z,952.6
2019-02-25T04:31:43.860Z,952.4
2019-02-25T04:32:43.800Z,952.6
2019-02-25T04:33:43.782Z,952.4
2019-02-25T04:34:43.713Z,952.5
2019-02-25T04:35:43.630Z,952.6
2019-02-25T04:36:43.522Z,952.5
2019-02-25T04:37:43.471Z,952.6
2019-02-25T04:38:43.389Z,952.4
2019-02-25T04:39:43.273Z,952.6
2019-02-25T04:40:43.581Z,952.6
2019-02-25T04:41:43.321Z,952.5
2019-02-25T04:42:43.095Z,952.6
2019-02-25T04:43:42.831Z,952.6
2019-02-25T04:44:42.560Z,952.6
2019-02-25T04:45:42.288Z,952.5
2019-02-25T04:46:42.035Z,952.6
2019-02-25T04:47:41.758Z,952.5
2019-02-25T04:48:41.510Z,952.5
2019-02-25T04:49:41.231Z,952.6
2019-02-25T04:50:41.393Z,952.6
2019-02-25T04:51:41.112Z,952.5
2019-02-25T04:52:40.846Z,952.5
2019-02-25T04:53:40.589Z,952.5
2019-02-25T04:54:40.313Z,952.3
2019-02-25T04:55:40.053Z,952.5
2019-02-25T04:56:39.821Z,952.4
2019-02-25T04:57:39.560Z,952.5
2019-02-25T04:58:39.310Z,952.5
2019-02-25T04:59:39.051Z,952.5
2019-02-25T05:00:39.470Z,952.4
2019-02-25T05:01:39.357Z,952.3
2019-02-25T05:02:39.256Z,952.3
2019-02-25T05:03:39.192Z,952.4
2019-02-25T05:04:39.076Z,951.7
2019-02-25T05:05:38.978Z,951.6
2019-02-25T05:06:38.899Z,952.4
2019-02-25T05:07:38.778Z,952.3
2019-02-25T05:08:38.690Z,950.7
2019-02-25T05:09:38.640Z,952.5
2019-02-25T05:10:38.981Z,952.5
2019-02-25T05:11:38.937Z,952.5
2019-02-25T05:12:38.860Z,952.4
2019-02-25T05:13:38.752Z,952.5
2019-02-25T05:14:38.682Z,952.5
2019-02-25T05:15:38.626Z,952.5
2019-02-25T05:16:40.883Z,952.3
2019-02-25T05:17:40.767Z,952.5
2019-02-25T05:18:40.694Z,952.5
2019-02-25T05:19:40.612Z,952.5
2019-02-25T05:20:40.925Z,952.5
2019-02-25T05:21:40.659Z,952.4
2019-02-25T05:22:40.393Z,952.5
2019-02-25T05:23:40.116Z,952.5
2019-02-25T05:24:39.892Z,952.5
2019-02-25T05:25:39.699Z,952.3
2019-02-25T05:26:39.445Z,952.4
2019-02-25T05:27:39.222Z,951.6
2019-02-25T05:28:38.973Z,952.5
2019-02-25T05:29:38.709Z,952.4
2019-02-25T05:30:39.228Z,952.3
2019-02-25T05:31:39.122Z,952.5
2019-02-25T05:32:39.020Z,952.5
2019-02-25T05:33:38.931Z,952.4
2019-02-25T05:34:38.830Z,952.4
2019-02-25T05:35:38.725Z,952.4
2019-02-25T05:36:38.658Z,952.3
2019-02-25T05:37:38.573Z,950.7
2019-02-25T05:38:38.496Z,952.5
2019-02-25T05:39:38.382Z,952.5
2019-02-25T05:40:38.781Z,952.3
2019-02-25T05:41:38.522Z,952.4
2019-02-25T05:42:38.261Z,952.5
2019-02-25T05:43:38.056Z,952.5
2019-02-25T05:44:37.803Z,951.6
2019-02-25T05:45:37.546Z,952.5
2019-02-25T05:46:37.294Z,952.3
2019-02-25T05:47:37.010Z,952.5
2019-02-25T05:48:36.744Z,952.5
2019-02-25T05:49:36.480Z,952.5
2019-02-25T05:50:36.871Z,952.4
2019-02-25T05:51:36.794Z,952.6
2019-02-25T05:52:36.676Z,952.5
2019-02-25T05:53:36.578Z,952.5
2019-02-25T05:54:36.467Z,952.5
2019-02-25T05:55:36.404Z,952.5
2019-02-25T05:56:36.450Z,952.6
2019-02-25T05:57:36.344Z,951.3
2019-02-25T05:58:36.224Z,952.6
2019-02-25T05:59:36.101Z,952.5
2019-02-25T06:00:36.420Z,952.6
2019-02-25T06:01:36.343Z,952.6
2019-02-25T06:02:36.105Z,952.7
2019-02-25T06:03:35.842Z,952.5
2019-02-25T06:04:35.578Z,952.6
2019-02-25T06:05:35.340Z,952.6
2019-02-25T06:06:35.062Z,952.5
2019-02-25T06:07:34.792Z,952.7
2019-02-25T06:08:34.547Z,952.7
2019-02-25T06:09:34.277Z,951.3
2019-02-25T06:10:34.438Z,952.7
2019-02-25T06:11:34.169Z,952.6
2019-02-25T06:12:33.908Z,952.6
2019-02-25T06:13:33.667Z,952.6
2019-02-25T06:14:33.417Z,952.6
2019-02-25T06:15:33.143Z,952.7
2019-02-25T06:16:32.877Z,952.4
2019-02-25T06:17:32.619Z,952.7
2019-02-25T06:18:32.380Z,952.5
2019-02-25T06:19:32.104Z,952.4
2019-02-25T06:20:32.417Z,952.6
2019-02-25T06:21:32.332Z,952.6
2019-02-25T06:22:32.214Z,952.3
2019-02-25T06:23:32.098Z,952.7
2019-02-25T06:24:32.094Z,952.8
2019-02-25T06:25:32.088Z,952.8
2019-02-25T06:26:32.038Z,951.2
2019-02-25T06:27:31.962Z,952.9
2019-02-25T06:28:31.855Z,952.6
2019-02-25T06:29:31.765Z,952.9
2019-02-25T06:30:32.107Z,952.8
2019-02-25T06:31:32.015Z,952.8
2019-02-25T06:32:31.898Z,952.7
2019-02-25T06:33:31.793Z,952.7
2019-02-25T06:34:31.687Z,952.7
2019-02-25T06:35:31.591Z,952.6
2019-02-25T06:36:31.480Z,952.6
2019-02-25T06:37:31.379Z,952.5
2019-02-25T06:38:31.265Z,952.6
2019-02-25T06:39:31.149Z,952.8
2019-02-25T06:40:31.557Z,952.7
2019-02-25T06:41:31.450Z,952.7
2019-02-25T06:42:31.332Z,952.7
2019-02-25T06:43:31.224Z,952.5
2019-02-25T06:44:31.124Z,952.5
2019-02-25T06:45:32.185Z,952.6
2019-02-25T06:46:32.077Z,951.8
2019-02-25T06:47:31.949Z,952.6
2019-02-25T06:48:31.827Z,952.8
2019-02-25T06:49:31.775Z,952.7
2019-02-25T06:50:32.089Z,952.5
2019-02-25T06:51:31.991Z,952.7
2019-02-25T06:52:31.876Z,952.7
2019-02-25T06:53:31.773Z,952.7
2019-02-25T06:54:31.655Z,952.7
2019-02-25T06:55:31.554Z,952.7
2019-02-25T06:56:31.461Z,952.7
2019-02-25T06:57:31.352Z,952.6
2019-02-25T06:58:31.240Z,952.6
2019-02-25T06:59:31.111Z,952.5
2019-02-25T07:00:31.478Z,952.6
2019-02-25T07:01:31.395Z,952.5
2019-02-25T07:02:31.277Z,952.5
2019-02-25T07:03:31.172Z,952.6
2019-02-25T07:04:31.051Z,952.4
2019-02-25T07:05:30.962Z,952.6
2019-02-25T07:06:30.851Z,952.4
2019-02-25T07:07:30.773Z,952.5
2019-02-25T07:08:30.670Z,952.4
2019-02-25T07:09:30.559Z,952.5
2019-02-25T07:10:30.863Z,952.6
2019-02-25T07:11:30.809Z,952.6
2019-02-25T07:12:30.539Z,952.5
2019-02-25T07:13:30.292Z,952.4
2019-02-25T07:14:30.009Z,952.5
2019-02-25T07:15:29.736Z,952.6
2019-02-25T07:16:29.461Z,952.4
2019-02-25T07:17:29.187Z,952.4
2019-02-25T07:18:28.930Z,952.5
2019-02-25T07:19:28.662Z,952.5
2019-02-25T07:20:28.980Z,952.5
2019-02-25T07:21:28.887Z,952.6
2019-02-25T07:22:28.783Z,952.5
2019-02-25T07:23:28.645Z,952.5
2019-02-25T07:24:28.565Z,952.5
2019-02-25T07:25:28.439Z,952.6
2019-02-25T07:26:28.502Z,952.5
2019-02-25T07:27:28.393Z,952.5
2019-02-25T07:28:28.277Z,952.5
2019-02-25T07:29:28.229Z,952.5
2019-02-25T07:30:28.597Z,952.7
2019-02-25T07:31:28.497Z,952.6
2019-02-25T07:32:30.603Z,952.5
2019-02-25T07:33:30.345Z,951.8
2019-02-25T07:34:30.077Z,952.7
2019-02-25T07:35:29.831Z,952.6
2019-02-25T07:36:29.579Z,952.7
2019-02-25T07:37:29.316Z,952.7
2019-02-25T07:38:29.065Z,952.7
2019-02-25T07:39:28.805Z,952.7
2019-02-25T07:40:29.117Z,952.8
2019-02-25T07:41:29.031Z,952.8
2019-02-25T07:42:28.909Z,952.7
2019-02-25T07:43:28.803Z,952.8
2019-02-25T07:44:28.703Z,952.8
2019-02-25T07:45:28.615Z,952.7
2019-02-25T07:46:28.525Z,952.7
2019-02-25T07:47:28.446Z,952.7
2019-02-25T07:48:28.339Z,952.7
2019-02-25T07:49:28.243Z,952.6
2019-02-25T07:50:28.558Z,952.7
2019-02-25T07:51:28.461Z,952.7
2019-02-25T07:52:28.378Z,952.7
2019-02-25T07:53:28.275Z,952.7
2019-02-25T07:54:28.175Z,952.6
2019-02-25T07:55:28.122Z,952.7
2019-02-25T07:56:27.850Z,952.7
2019-02-25T07:57:27.622Z,952.6
2019-02-25T07:58:27.365Z,952.7
2019-02-25T07:59:27.251Z,952.7
2019-02-25T08:00:27.567Z,952.7
2019-02-25T08:01:27.455Z,952.7
2019-02-25T08:02:27.356Z,952.5
2019-02-25T08:03:27.090Z,952.7
2019-02-25T08:04:26.821Z,952.6
2019-02-25T08:05:26.726Z,952.6
2019-02-25T08:06:26.621Z,952.6
2019-02-25T08:07:26.511Z,952.6
2019-02-25T08:08:26.439Z,952.7
2019-02-25T08:09:26.359Z,952.6
2019-02-25T08:10:26.732Z,952.7
2019-02-25T08:11:26.624Z,952.7
2019-02-25T08:12:26.499Z,951.3
2019-02-25T08:13:26.407Z,952.8
2019-02-25T08:14:26.332Z,952.7
2019-02-25T08:15:26.230Z,952.7
2019-02-25T08:16:26.113Z,951.2
2019-02-25T08:17:26.175Z,952.7
2019-02-25T08:18:26.066Z,952.7
2019-02-25T08:19:25.991Z,952.7
2019-02-25T08:20:26.420Z,952.7
2019-02-25T08:21:26.316Z,952.7
2019-02-25T08:22:26.242Z,952.7
2019-02-25T08:23:26.162Z,952.7
2019-02-25T08:24:31.703Z,951.3
2019-02-25T08:25:31.609Z,952.8
2019-02-25T08:26:31.498Z,952.7
2019-02-25T08:27:31.396Z,952.7
2019-02-25T08:28:33.448Z,952.8
2019-02-25T08:29:33.342Z,952.9
2019-02-25T08:30:33.664Z,952.9
2019-02-25T08:31:33.546Z,952.9
2019-02-25T08:32:33.473Z,952.8
2019-02-25T08:33:33.359Z,952.9
2019-02-25T08:34:33.262Z,952.9
2019-02-25T08:35:33.146Z,953
2019-02-25T08:36:33.040Z,952.9
2019-02-25T08:37:32.964Z,952.9
2019-02-25T08:38:32.856Z,952.9
2019-02-25T08:39:32.750Z,953
2019-02-25T08:40:33.064Z,953
2019-02-25T08:41:32.946Z,952.5
2019-02-25T08:42:32.862Z,953
2019-02-25T08:43:32.743Z,952.9
2019-02-25T08:44:32.630Z,953
2019-02-25T08:45:32.514Z,952.9
2019-02-25T08:46:32.417Z,953
2019-02-25T08:47:32.326Z,953.1
2019-02-25T08:48:32.218Z,953.1
2019-02-25T08:49:32.119Z,953.1
2019-02-25T08:50:32.436Z,953.1
2019-02-25T08:51:32.369Z,953.1
2019-02-25T08:52:32.304Z,953.1
2019-02-25T08:53:32.192Z,953
2019-02-25T08:54:32.070Z,953.1
2019-02-25T08:55:31.995Z,953
2019-02-25T08:56:31.893Z,953.1
2019-02-25T08:57:31.772Z,953.1
2019-02-25T08:58:31.668Z,953
2019-02-25T08:59:31.560Z,953
2019-02-25T09:00:31.945Z,952.4
2019-02-25T09:01:31.853Z,952.9
2019-02-25T09:02:31.735Z,953
2019-02-25T09:03:31.631Z,953
2019-02-25T09:04:31.521Z,953.1
2019-02-25T09:05:31.427Z,953
2019-02-25T09:06:31.352Z,953
2019-02-25T09:07:31.224Z,953.1
2019-02-25T09:08:31.122Z,953
2019-02-25T09:09:31.006Z,953
2019-02-25T09:10:31.362Z,953
2019-02-25T09:11:31.267Z,953
2019-02-25T09:12:31.175Z,953
2019-02-25T09:13:31.060Z,953
2019-02-25T09:14:30.970Z,953
2019-02-25T09:15:33.182Z,953
2019-02-25T09:16:33.090Z,953
2019-02-25T09:17:32.977Z,951.6
2019-02-25T09:18:32.859Z,953
2019-02-25T09:19:32.764Z,953
2019-02-25T09:20:33.148Z,953
2019-02-25T09:21:33.148Z,953
2019-02-25T09:22:33.038Z,952.9
2019-02-25T09:23:32.949Z,953
2019-02-25T09:24:32.846Z,953
2019-02-25T09:25:32.739Z,953
2019-02-25T09:26:32.630Z,953
2019-02-25T09:27:32.540Z,953
2019-02-25T09:28:32.432Z,952.9
2019-02-25T09:29:32.340Z,952.9
2019-02-25T09:32:28.564Z,953.1
2019-02-25T09:33:28.910Z,953.1
2019-02-25T09:34:28.822Z,953.1
2019-02-25T09:35:28.716Z,953.1
2019-02-25T09:36:28.614Z,953.2
2019-02-25T09:37:28.494Z,953.2
2019-02-25T09:38:28.399Z,953.2
2019-02-25T09:39:28.311Z,953.1
2019-02-25T09:40:28.217Z,953.1
2019-02-25T09:41:31.120Z,953.2
2019-02-25T09:42:31.013Z,953.2
2019-02-25T09:43:31.396Z,952.7
2019-02-25T09:44:31.308Z,953.2
2019-02-25T09:45:31.208Z,953.2
2019-02-25T09:46:31.104Z,953.2
2019-02-25T09:47:30.991Z,952.6
2019-02-25T09:48:30.908Z,953.3
2019-02-25T09:49:30.810Z,953.2
2019-02-25T09:50:30.770Z,953.2
2019-02-25T09:51:30.664Z,953.2
2019-02-25T09:52:30.577Z,953.2
2019-02-25T09:53:30.952Z,953.2
2019-02-25T09:54:30.854Z,953.2
2019-02-25T09:55:30.751Z,953.3
2019-02-25T09:56:30.650Z,953.3
2019-02-25T09:57:30.536Z,951.8
2019-02-25T09:58:30.436Z,953.1
2019-02-25T09:59:30.346Z,953.2
2019-02-25T10:00:30.277Z,953.4
2019-02-25T10:01:30.153Z,952.2
2019-02-25T10:02:30.105Z,953.4
2019-02-25T10:03:30.514Z,953.4
2019-02-25T10:04:30.435Z,953.3
2019-02-25T10:05:30.325Z,953.3
2019-02-25T10:06:30.205Z,953.3
2019-02-25T10:07:30.095Z,953.2
2019-02-25T10:08:29.981Z,953.2
2019-02-25T10:09:33.184Z,953.4
2019-02-25T10:10:33.082Z,953.4
2019-02-25T10:11:32.969Z,953.3
2019-02-25T10:12:32.857Z,953.4
2019-02-25T10:13:33.283Z,953.4
2019-02-25T10:14:33.236Z,953.5
2019-02-25T10:15:33.131Z,953.1
2019-02-25T10:16:33.013Z,953.4
2019-02-25T10:17:32.926Z,952
2019-02-25T10:18:32.805Z,953.5
2019-02-25T10:19:34.997Z,953.5
2019-02-25T10:20:34.905Z,953.4
2019-02-25T10:21:34.775Z,953.5
2019-02-25T10:22:37.141Z,953.3
2019-02-25T10:23:37.472Z,953.3
2019-02-25T10:24:37.387Z,953.5
2019-02-25T10:25:37.302Z,953.5
2019-02-25T10:26:37.247Z,953.5
2019-02-25T10:27:37.148Z,953.5
2019-02-25T10:28:37.059Z,953.6
2019-02-25T10:29:36.948Z,953.5
2019-02-25T10:30:37.013Z,953.3
2019-02-25T10:31:44.099Z,953.5
2019-02-25T10:32:44.103Z,953.5
2019-02-25T10:33:44.441Z,953.5
2019-02-25T10:34:44.331Z,953.5
2019-02-25T10:35:44.253Z,953.5
2019-02-25T10:36:52.574Z,953.5
2019-02-25T10:37:52.465Z,953.5
2019-02-25T10:38:52.183Z,953.4
2019-02-25T10:39:52.233Z,953.4
2019-02-25T10:40:54.469Z,953.2
2019-02-25T10:42:01.819Z,953.4
2019-02-25T10:43:01.737Z,953.4
2019-02-25T10:44:09.310Z,953.5
2019-02-25T10:45:13.813Z,953.4
2019-02-25T10:46:18.179Z,953.4
2019-02-25T10:47:21.955Z,953.3
2019-02-25T10:48:26.050Z,953.4
2019-02-25T10:49:33.836Z,953.5
2019-02-25T10:50:40.900Z,953.5
2019-02-25T10:51:45.893Z,953.4
2019-02-25T10:52:49.909Z,953.4
2019-02-25T10:53:54.258Z,953.3
2019-02-25T10:54:58.997Z,953.6
2019-02-25T10:55:58.898Z,953.5
2019-02-25T10:56:58.837Z,953.5
2019-02-25T10:58:04.371Z,953.5
2019-02-25T10:59:08.747Z,953.5
2019-02-25T11:00:14.128Z,953.4
2019-02-25T11:01:24.947Z,953.4
2019-02-25T11:02:24.884Z,953.4
2019-02-25T11:03:24.777Z,953.4
2019-02-25T11:04:27.013Z,953.4
2019-02-25T11:05:31.363Z,953.4
2019-02-25T11:06:38.263Z,953.3
2019-02-25T11:07:42.659Z,953.4
2019-02-25T11:08:46.431Z,953.4
2019-02-25T11:09:50.860Z,953.4
2019-02-25T11:10:55.481Z,953.4
2019-02-25T11:12:00.717Z,953.4
2019-02-25T11:13:04.966Z,953.4
2019-02-25T11:14:09.807Z,953.4
2019-02-25T11:15:16.316Z,953.3
2019-02-25T11:16:21.225Z,953.4
2019-02-25T11:17:25.113Z,953.3
2019-02-25T11:18:29.098Z,953.4
2019-02-25T11:19:33.281Z,953.4
2019-02-25T11:20:38.192Z,953.3
2019-02-25T11:21:44.535Z,953.2
2019-02-25T11:22:48.951Z,953.2
2019-02-25T11:23:53.873Z,953.3
2019-02-25T11:24:58.289Z,953.2
2019-02-25T11:26:02.540Z,953.3
2019-02-25T11:27:08.323Z,952.9
2019-02-25T11:28:26.479Z,953.2
2019-02-25T11:29:26.443Z,953
2019-02-25T11:30:26.400Z,953.1
2019-02-25T11:31:29.923Z,953.2
2019-02-25T11:32:29.814Z,953.1
2019-02-25T11:33:34.865Z,953
2019-02-25T11:34:40.201Z,953.1
2019-02-25T11:35:48.329Z,953.1
2019-02-25T11:36:59.722Z,953
2019-02-25T11:38:02.541Z,953
2019-02-25T11:39:09.951Z,953
2019-02-25T11:40:09.864Z,953.1
2019-02-25T11:41:12.092Z,952.9
2019-02-25T11:42:21.019Z,952.9
2019-02-25T11:43:22.550Z,952.9
2019-02-25T11:44:31.610Z,953
2019-02-25T11:45:31.524Z,953.1
2019-02-25T11:46:31.432Z,953
2019-02-25T11:47:31.351Z,953
2019-02-25T11:48:31.693Z,952.9
2019-02-25T11:49:31.588Z,952.9
2019-02-25T11:50:31.480Z,953
2019-02-25T11:51:31.399Z,952.9
2019-02-25T11:52:31.290Z,953
2019-02-25T11:53:31.193Z,953
2019-02-25T11:54:31.118Z,953
2019-02-25T11:55:31.013Z,953
2019-02-25T11:56:32.051Z,952.9
2019-02-25T11:57:31.956Z,952.9
2019-02-25T11:58:32.268Z,952.9
2019-02-25T11:59:32.191Z,953
2019-02-25T12:00:32.084Z,952.9
2019-02-25T12:01:32.072Z,953
2019-02-25T12:02:31.979Z,953
2019-02-25T12:03:31.860Z,953
2019-02-25T12:04:31.740Z,953
2019-02-25T12:05:31.632Z,952.9
2019-02-25T12:06:31.531Z,952.9
2019-02-25T12:07:31.434Z,952.8
2019-02-25T12:08:31.806Z,952.8
2019-02-25T12:09:31.702Z,952.8
2019-02-25T12:10:31.608Z,952.8
2019-02-25T12:11:31.500Z,952.9
2019-02-25T12:12:31.458Z,952.8
2019-02-25T12:13:31.344Z,952.7
2019-02-25T12:14:31.236Z,952.8
2019-02-25T12:15:31.197Z,952.8
2019-02-25T12:16:31.080Z,952.8
2019-02-25T12:17:30.946Z,952.8
2019-02-25T12:18:31.298Z,952.8
2019-02-25T12:19:31.216Z,952.8
2019-02-25T12:20:31.111Z,952.8
2019-02-25T12:21:30.990Z,952.7
2019-02-25T12:22:30.882Z,952.8
2019-02-25T12:23:30.784Z,952.8
2019-02-25T12:24:30.692Z,952.8
2019-02-25T12:25:30.588Z,952.8
2019-02-25T12:26:30.476Z,952.8
2019-02-25T12:27:30.348Z,952.8
2019-02-25T12:28:30.698Z,952.7
2019-02-25T12:29:30.744Z,952.6
2019-02-25T12:30:30.650Z,952.6
2019-02-25T12:31:30.526Z,952.7
2019-02-25T12:32:30.406Z,952.7
2019-02-25T12:33:30.340Z,952.7
2019-02-25T12:34:30.224Z,952.7
2019-02-25T12:35:30.112Z,952.7
2019-02-25T12:36:30.005Z,952.6
2019-02-25T12:37:29.898Z,952.6
